x

San Francisco - 18nm West Of San Francisco, Ca (46026) Wave Buoy

10:50pm - Tue 27th Jan 2015 All times are PST. -8 hours from GMT.

  • Sig Wave height 5.2ft
  • Swell Direction
  • Peak Period 11s
  • Average Period 9s
  • Wind
    7mph, 9mph gusts
  • Sea Temp 55°f
  • Air Temp 57°f
  • Sea Pressure 1024.8mb
  • San Francisco - 18nm West Of San Francisco, Ca
  • San Francisco - 18nm West Of San Francisco, Ca

More Historic Weather Station data

Upgrade to MSW Pro to gain access to the past 30 days of data for over 8000 Wavebouys and Weather Stations around the globe.

Join Pro

Comparision Forecast

View Surf forecast
   
Tue 01/27 10:50pm 5ft 11s 9s 7 9 mph 1024.8mb 55f 57f
9:50pm 5.5ft 14s 9s 7 9 mph 1024.7mb 55f 57f
8:50pm 5ft 15s 8s 7 9 mph 1024.4mb 56f 57f
7:50pm 5ft 14s 9s 7 9 mph 1024mb 56f 57f
6:50pm 5ft 14s 8s 4 7 mph 1023.7mb 56f 57f
5:50pm 5ft 13s 8s 4 7 mph 1023.3mb 56f 57f
4:50pm 5ft 15s 8s 7 9 mph 1023.1mb 56f 58f
3:50pm 5.5ft 13s 8s 9 11 mph 1022.9mb 56f 58f
2:50pm 5ft 13s 8s 11
mph
1023.1mb 56f 58f
1:50pm 6ft 12s 9s 9 11 mph 1022.9mb 56f 58f
12:50pm 6ft 12s 7s 13 16 mph 1022.7mb 55f 59f
11:50am 5.5ft 15s 7s 11 16 mph 1023.1mb 55f 59f
10:50am 6ft 15s 7s 16 20 mph 1022.6mb 55f 59f
9:50am 6ft 13s 7s 16 18 mph 1022.1mb 55f 59f
8:50am 6ft 12s 6s 18 20 mph 1021.4mb 55f 58f
7:50am 5.5ft 13s 6s 18 20 mph 1020.8mb 55f 58f
6:50am 6ft 13s 6s 22 27 mph 1019.4mb 55f 58f
5:50am 5ft 14s 7s 18 20 mph 1018.8mb 55f 58f
4:50am 5.5ft 13s 9s 13 18 mph 1018.6mb 55f 58f
3:50am 6ft 13s 9s 11 13 mph 1018.3mb 55f 58f
2:50am 5ft 14s 11s 11 13 mph 1017.9mb 55f 57f
1:50am 6ft 14s 11s 9 11 mph 1017.4mb 55f 57f
12:50am 5ft 12s 11s 9
mph
1016.6mb 55f 57f
Mon 01/26 11:50pm 5ft 14s 11s 2 4 mph 1016.2mb 55f 58f
10:50pm 5.5ft 14s 11s 4 7 mph 1015.6mb 55f 56f
9:50pm 6ft 14s 11s 7 9 mph 1015.2mb 55f 57f
8:50pm 5.5ft 14s 11s 7 11 mph 1015.3mb 55f 58f
7:50pm 5.5ft 14s 11s 2 4 mph 1015.3mb 55f 56f
6:50pm 6ft 14s 11s 2 4 mph 1015.2mb 55f 56f
5:50pm 5.5ft 14s 11s 4
mph
1014.9mb 56f 57f
4:50pm 6ft 14s 10s 4 7 mph 1014.8mb 56f 57f
3:50pm 6ft 15s 11s 7 9 mph 1014.8mb 56f 58f
2:50pm 5.5ft 14s 10s 7 9 mph 1014.8mb 56f 58f
1:50pm 6ft 15s 9s 13 16 mph 1014.7mb 56f 58f
12:50pm 7ft 15s 10s 11 13 mph 1015.4mb 55f 58f
11:50am 6ft 12s 8s 13 16 mph 1016.3mb 55f 57f
10:50am 6ft 12s 7s 18 22 mph 1016.7mb 55f 57f
9:50am 6ft 14s 8s 20 25 mph 1016.1mb 55f 57f
8:50am 6ft 16s 7s 22 27 mph 1016.1mb 55f 57f
7:50am 6ft 15s 7s 20 25 mph 1015.6mb 55f 57f
6:50am 6ft 15s 8s 20 25 mph 1015.6mb 55f 56f
5:50am 6ft 11s 9s 16 20 mph 1015.4mb 55f 58f
4:50am 5.5ft 13s 9s 13 16 mph 1015.7mb 55f 57f
3:50am 5ft 14s 8s 13 18 mph 1016.1mb 55f 56f
2:50am 6ft 15s 9s 16 20 mph 1016.5mb 55f 57f
1:50am 5.5ft 14s 10s 13 16 mph 1016.6mb 55f 57f
12:50am 6ft 15s 10s 11 13 mph 1016.9mb 55f 57f
Sun 01/25 11:50pm 6ft 12s 9s 11 13 mph 1017.3mb 55f 57f
10:50pm 5.5ft 12s 9s 11 13 mph 1017.2mb 55f 58f
9:50pm 6ft 14s 9s 13 18 mph 1016.8mb 55f 58f
8:50pm 5.5ft 15s 10s 13 16 mph 1016.4mb 55f 59f
7:50pm 6ft 13s 10s 13 16 mph 1016.6mb 55f 59f
6:50pm 6ft 15s 10s 9 11 mph 1016.3mb 56f 59f
5:50pm 6.5ft 15s 10s 11 13 mph 1015.9mb 56f 60f
4:50pm 6ft 14s 9s 11 16 mph 1015.7mb 56f 60f
3:50pm 5.5ft 14s 8s 16 20 mph 1016mb 56f 60f
2:50pm 6ft 15s 8s 16 18 mph 1016.3mb 56f 59f
12:50pm 6.5ft 14s 7s 18 20 mph 1017.5mb 55f 57f
11:50am 6ft 14s 6s 20 25 mph 1018.4mb 55f 55f
10:50am 7ft 14s 7s 22 27 mph 1019.2mb 55f 54f
9:50am 6.5ft 15s 7s 22 27 mph 1019.2mb 55f 54f
8:50am 6ft 15s 7s 20 25 mph 1019mb 55f 53f
7:50am 6ft 15s 7s 22 27 mph 1019mb 55f 53f
6:50am 6.5ft 15s 7s 20 25 mph 1019mb 55f 53f
5:50am 7.5ft 15s 8s 22 27 mph 1018.8mb 55f 53f
4:50am 6.5ft 15s 7s 20 25 mph 1018.8mb 55f 53f
3:50am 7ft 15s 7s 22 27 mph 1018.9mb 55f 54f
2:50am 6.5ft 16s 7s 18 22 mph 1019.2mb 55f 54f
1:50am 8ft 15s 9s 18 22 mph 1019.5mb 55f 58f
12:50am 6.5ft 15s 9s 16 20 mph 1019.3mb 55f 58f
Sat 01/24 11:50pm 7.5ft 15s 10s 13 18 mph 1020mb 55f 57f
10:50pm 7.5ft 14s 10s 11 13 mph 1020.1mb 55f 57f
9:50pm 8ft 16s 10s 7 9 mph 1020.1mb 55f 57f
8:50pm 7ft 16s 10s 4 7 mph 1020mb 56f 56f
7:50pm 8ft 16s 10s 4 7 mph 1020mb 56f 56f
6:50pm 8.5ft 15s 11s 4 7 mph 1019.7mb 56f 57f
5:50pm 7ft 16s 10s 4
mph
1019.3mb 56f 58f
4:50pm 8.5ft 16s 10s 7 9 mph 1019.3mb 56f 58f
3:50pm 7.5ft 15s 10s 4 9 mph 1019.7mb 56f 60f
2:50pm 8.5ft 16s 10s 7 9 mph 1019.9mb 56f 58f
1:50pm 9ft 15s 10s 9 11 mph 1020.4mb 56f 58f
12:50pm 8ft 16s 10s 9 11 mph 1021mb 55f 57f
11:50am 8.5ft 16s 9s 9 16 mph 1022.3mb 55f 56f
10:50am 9ft 16s 9s 9 13 mph 1023.2mb 55f 56f
9:50am 8.5ft 16s 9s 18 20 mph 1023mb 55f 55f
8:50am 9ft 16s 10s 13 20 mph 1023.2mb 55f 55f
7:50am 8.5ft 17s 9s 9 13 mph 1023.1mb 55f 56f